createdAt,value
2019-03-22T00:00:15.207Z,1028.19
2019-03-22T00:01:15.186Z,1028.22
2019-03-22T00:02:15.167Z,1028.19
2019-03-22T00:03:15.158Z,1028.22
2019-03-22T00:04:15.138Z,1028.21
2019-03-22T00:05:15.185Z,1028.20
2019-03-22T00:06:15.189Z,1028.17
2019-03-22T00:07:15.170Z,1028.17
2019-03-22T00:08:15.131Z,1028.12
2019-03-22T00:09:15.140Z,1028.08
2019-03-22T00:10:15.080Z,1028.17
2019-03-22T00:11:15.063Z,1028.12
2019-03-22T00:12:15.064Z,1028.12
2019-03-22T00:13:15.080Z,1028.12
2019-03-22T00:14:15.033Z,1028.12
2019-03-22T00:15:15.049Z,1028.14
2019-03-22T00:16:15.009Z,1028.16
2019-03-22T00:17:15.016Z,1028.15
2019-03-22T00:18:14.981Z,1028.18
2019-03-22T00:19:14.974Z,1028.11
2019-03-22T00:20:14.978Z,1028.17
2019-03-22T00:21:14.958Z,1028.14
2019-03-22T00:22:14.949Z,1028.13
2019-03-22T00:23:14.949Z,1028.14
2019-03-22T00:24:14.923Z,1028.14
2019-03-22T00:25:14.901Z,1028.09
2019-03-22T00:26:14.894Z,1028.11
2019-03-22T00:27:16.741Z,1028.10
2019-03-22T00:28:14.893Z,1028.12
2019-03-22T00:29:14.863Z,1028.14
2019-03-22T00:30:14.863Z,1028.11
2019-03-22T00:31:14.867Z,1028.08
2019-03-22T00:32:14.832Z,1028.10
2019-03-22T00:33:14.847Z,1028.05
2019-03-22T00:34:14.837Z,1028.04
2019-03-22T00:35:14.840Z,1028.04
2019-03-22T00:36:14.781Z,1028.06
2019-03-22T00:37:14.793Z,1028.08
2019-03-22T00:38:14.757Z,1028.07
2019-03-22T00:39:14.763Z,1028.08
2019-03-22T00:40:14.765Z,1028.09
2019-03-22T00:41:14.744Z,1028.11
2019-03-22T00:42:14.721Z,1028.11
2019-03-22T00:43:14.750Z,1028.10
2019-03-22T00:44:14.690Z,1028.15
2019-03-22T00:45:14.697Z,1028.17
2019-03-22T00:46:14.697Z,1028.17
2019-03-22T00:47:14.666Z,1028.13
2019-03-22T00:48:14.691Z,1028.17
2019-03-22T00:49:14.635Z,1028.18
2019-03-22T00:50:14.632Z,1028.16
2019-03-22T00:51:14.616Z,1028.08
2019-03-22T00:52:14.606Z,1028.04
2019-03-22T00:53:14.605Z,1028.02
2019-03-22T00:54:14.699Z,1028.02
2019-03-22T00:55:14.595Z,1028.06
2019-03-22T00:56:14.566Z,1028.01
2019-03-22T00:57:14.554Z,1027.97
2019-03-22T00:58:14.540Z,1027.99
2019-03-22T00:59:14.531Z,1028.00
2019-03-22T01:00:14.527Z,1027.99
2019-03-22T01:01:14.504Z,1027.94
2019-03-22T01:02:14.514Z,1027.92
2019-03-22T01:03:14.487Z,1027.94
2019-03-22T01:04:14.565Z,1027.93
2019-03-22T01:05:14.482Z,1027.90
2019-03-22T01:06:14.495Z,1027.91
2019-03-22T01:07:14.446Z,1027.86
2019-03-22T01:08:14.427Z,1027.86
2019-03-22T01:09:14.431Z,1027.85
2019-03-22T01:10:14.419Z,1027.80
2019-03-22T01:11:14.405Z,1027.81
2019-03-22T01:12:14.408Z,1027.78
2019-03-22T01:13:14.367Z,1027.79
2019-03-22T01:14:14.472Z,1027.81
2019-03-22T01:15:14.354Z,1027.84
2019-03-22T01:16:14.340Z,1027.84
2019-03-22T01:17:14.412Z,1027.86
2019-03-22T01:18:14.315Z,1027.87
2019-03-22T01:19:14.322Z,1027.89
2019-03-22T01:20:14.290Z,1027.89
2019-03-22T01:21:14.288Z,1027.88
2019-03-22T01:22:14.274Z,1027.89
2019-03-22T01:23:14.270Z,1027.83
2019-03-22T01:24:14.253Z,1027.84
2019-03-22T01:25:14.243Z,1027.82
2019-03-22T01:26:14.226Z,1027.80
2019-03-22T01:27:14.220Z,1027.79
2019-03-22T01:28:14.266Z,1027.80
2019-03-22T01:29:14.199Z,1027.79
2019-03-22T01:30:14.180Z,1027.76
2019-03-22T01:31:14.178Z,1027.81
2019-03-22T01:32:14.157Z,1027.75
2019-03-22T01:33:14.158Z,1027.77
2019-03-22T01:34:14.173Z,1027.76
2019-03-22T01:35:14.134Z,1027.78
2019-03-22T01:36:14.115Z,1027.78
2019-03-22T01:37:14.114Z,1027.73
2019-03-22T01:38:14.104Z,1027.75
2019-03-22T01:39:14.128Z,1027.75
2019-03-22T01:40:14.074Z,1027.75
2019-03-22T01:41:14.075Z,1027.75
2019-03-22T01:42:14.060Z,1027.75
2019-03-22T01:43:14.039Z,1027.77
2019-03-22T01:44:14.039Z,1027.74
2019-03-22T01:45:14.073Z,1027.72
2019-03-22T01:46:14.005Z,1027.71
2019-03-22T01:47:20.745Z,1027.67
2019-03-22T01:48:13.988Z,1027.62
2019-03-22T01:49:13.985Z,1027.71
2019-03-22T01:50:13.987Z,1027.66
2019-03-22T01:51:13.952Z,1027.68
2019-03-22T01:52:13.954Z,1027.61
2019-03-22T01:53:13.935Z,1027.60
2019-03-22T01:54:13.925Z,1027.57
2019-03-22T01:55:13.923Z,1027.55
2019-03-22T01:56:13.924Z,1027.51
2019-03-22T01:57:13.892Z,1027.53
2019-03-22T01:58:13.867Z,1027.47
2019-03-22T01:59:13.861Z,1027.47
2019-03-22T02:00:13.856Z,1027.52
2019-03-22T02:01:13.856Z,1027.52
2019-03-22T02:02:13.832Z,1027.53
2019-03-22T02:03:13.840Z,1027.52
2019-03-22T02:04:13.814Z,1027.54
2019-03-22T02:05:13.790Z,1027.52
2019-03-22T02:06:13.796Z,1027.49
2019-03-22T02:07:13.801Z,1027.52
2019-03-22T02:08:13.791Z,1027.53
2019-03-22T02:09:13.766Z,1027.52
2019-03-22T02:10:13.783Z,1027.56
2019-03-22T02:11:13.731Z,1027.55
2019-03-22T02:12:13.735Z,1027.51
2019-03-22T02:13:13.715Z,1027.58
2019-03-22T02:14:13.692Z,1027.58
2019-03-22T02:15:13.681Z,1027.58
2019-03-22T02:16:13.717Z,1027.61
2019-03-22T02:17:13.672Z,1027.59
2019-03-22T02:18:13.663Z,1027.57
2019-03-22T02:19:13.674Z,1027.60
2019-03-22T02:20:13.626Z,1027.56
2019-03-22T02:21:13.625Z,1027.57
2019-03-22T02:22:13.621Z,1027.56
2019-03-22T02:23:13.607Z,1027.54
2019-03-22T02:24:13.586Z,1027.54
2019-03-22T02:25:13.578Z,1027.52
2019-03-22T02:26:13.621Z,1027.55
2019-03-22T02:27:13.625Z,1027.56
2019-03-22T02:28:13.538Z,1027.60
2019-03-22T02:29:13.538Z,1027.62
2019-03-22T02:30:13.549Z,1027.61
2019-03-22T02:31:13.530Z,1027.64
2019-03-22T02:32:13.498Z,1027.69
2019-03-22T02:33:13.502Z,1027.67
2019-03-22T02:34:13.494Z,1027.72
2019-03-22T02:35:27.362Z,1027.66
2019-03-22T02:36:14.462Z,1027.66
2019-03-22T02:37:13.441Z,1027.71
2019-03-22T02:38:13.433Z,1027.66
2019-03-22T02:39:13.489Z,1027.66
2019-03-22T02:40:13.419Z,1027.70
2019-03-22T02:41:13.407Z,1027.72
2019-03-22T02:42:13.395Z,1027.68
2019-03-22T02:43:13.382Z,1027.68
2019-03-22T02:44:13.379Z,1027.70
2019-03-22T02:45:13.374Z,1027.72
2019-03-22T02:46:13.348Z,1027.69
2019-03-22T02:47:13.345Z,1027.67
2019-03-22T02:48:13.317Z,1027.66
2019-03-22T02:49:13.304Z,1027.65
2019-03-22T02:50:18.505Z,1027.65
2019-03-22T02:51:14.315Z,1027.66
2019-03-22T02:52:13.282Z,1027.67
2019-03-22T02:53:13.284Z,1027.69
2019-03-22T02:54:13.250Z,1027.71
2019-03-22T02:55:13.262Z,1027.77
2019-03-22T02:56:13.399Z,1027.77
2019-03-22T02:57:13.229Z,1027.84
2019-03-22T02:58:20.580Z,1027.81
2019-03-22T02:59:14.199Z,1027.84
2019-03-22T03:00:13.213Z,1027.85
2019-03-22T03:01:13.172Z,1027.81
2019-03-22T03:02:13.239Z,1027.80
2019-03-22T03:03:13.175Z,1027.78
2019-03-22T03:04:13.159Z,1027.77
2019-03-22T03:05:13.182Z,1027.81
2019-03-22T03:06:13.125Z,1027.77
2019-03-22T03:07:13.130Z,1027.78
2019-03-22T03:08:13.108Z,1027.71
2019-03-22T03:09:13.092Z,1027.74
2019-03-22T03:10:13.101Z,1027.72
2019-03-22T03:11:13.074Z,1027.77
2019-03-22T03:12:13.058Z,1027.77
2019-03-22T03:13:13.133Z,1027.77
2019-03-22T03:14:13.038Z,1027.84
2019-03-22T03:15:13.041Z,1027.87
2019-03-22T03:16:13.033Z,1027.92
2019-03-22T03:17:12.998Z,1027.95
2019-03-22T03:18:12.996Z,1028.00
2019-03-22T03:19:13.004Z,1027.98
2019-03-22T03:20:12.985Z,1028.00
2019-03-22T03:21:12.963Z,1028.00
2019-03-22T03:22:12.957Z,1028.07
2019-03-22T03:23:12.928Z,1028.07
2019-03-22T03:24:12.922Z,1028.08
2019-03-22T03:25:12.927Z,1028.12
2019-03-22T03:26:12.920Z,1028.10
2019-03-22T03:27:12.896Z,1028.10
2019-03-22T03:28:12.878Z,1028.10
2019-03-22T03:29:12.874Z,1028.13
2019-03-22T03:30:12.863Z,1028.15
2019-03-22T03:31:12.839Z,1028.17
2019-03-22T03:32:12.866Z,1028.21
2019-03-22T03:33:12.820Z,1028.18
2019-03-22T03:34:12.822Z,1028.19
2019-03-22T03:35:12.848Z,1028.21
2019-03-22T03:36:12.789Z,1028.20
2019-03-22T03:37:12.780Z,1028.21
2019-03-22T03:38:12.768Z,1028.26
2019-03-22T03:39:12.785Z,1028.22
2019-03-22T03:40:12.742Z,1028.26
2019-03-22T03:41:12.748Z,1028.20
2019-03-22T03:42:13.828Z,1028.23
2019-03-22T03:43:12.720Z,1028.23
2019-03-22T03:44:12.712Z,1028.22
2019-03-22T03:45:12.698Z,1028.26
2019-03-22T03:46:12.703Z,1028.26
2019-03-22T03:47:12.689Z,1028.30
2019-03-22T03:48:12.692Z,1028.30
2019-03-22T03:49:12.684Z,1028.34
2019-03-22T03:50:12.657Z,1028.34
2019-03-22T03:51:12.633Z,1028.37
2019-03-22T03:52:12.669Z,1028.36
2019-03-22T03:53:12.615Z,1028.36
2019-03-22T03:54:12.600Z,1028.34
2019-03-22T03:55:12.589Z,1028.33
2019-03-22T03:56:12.590Z,1028.37
2019-03-22T03:57:12.563Z,1028.36
2019-03-22T03:58:12.569Z,1028.36
2019-03-22T03:59:12.555Z,1028.37
2019-03-22T04:00:12.526Z,1028.35
2019-03-22T04:01:12.517Z,1028.27
2019-03-22T04:02:12.539Z,1028.27
2019-03-22T04:03:12.518Z,1028.29
2019-03-22T04:04:12.485Z,1028.29
2019-03-22T04:05:14.510Z,1028.37
2019-03-22T04:06:12.457Z,1028.38
2019-03-22T04:07:12.459Z,1028.45
2019-03-22T04:08:12.446Z,1028.49
2019-03-22T04:09:12.436Z,1028.51
2019-03-22T04:10:12.421Z,1028.56
2019-03-22T04:11:12.422Z,1028.55
2019-03-22T04:12:12.393Z,1028.50
2019-03-22T04:13:12.389Z,1028.49
2019-03-22T04:14:12.366Z,1028.44
2019-03-22T04:15:12.370Z,1028.41
2019-03-22T04:16:12.370Z,1028.42
2019-03-22T04:17:12.333Z,1028.39
2019-03-22T04:18:12.327Z,1028.41
2019-03-22T04:19:12.326Z,1028.41
2019-03-22T04:20:12.329Z,1028.46
2019-03-22T04:21:12.293Z,1028.48
2019-03-22T04:22:12.287Z,1028.50
2019-03-22T04:23:12.268Z,1028.51
2019-03-22T04:24:12.278Z,1028.49
2019-03-22T04:25:12.314Z,1028.51
2019-03-22T04:26:12.282Z,1028.48
2019-03-22T04:27:12.226Z,1028.48
2019-03-22T04:28:12.236Z,1028.50
2019-03-22T04:29:12.213Z,1028.47
2019-03-22T04:30:12.198Z,1028.49
2019-03-22T04:31:12.209Z,1028.48
2019-03-22T04:32:12.171Z,1028.41
2019-03-22T04:33:12.191Z,1028.39
2019-03-22T04:34:12.152Z,1028.41
2019-03-22T04:35:12.196Z,1028.35
2019-03-22T04:36:12.225Z,1028.36
2019-03-22T04:37:12.145Z,1028.37
2019-03-22T04:38:12.737Z,1028.33
2019-03-22T04:39:12.105Z,1028.40
2019-03-22T04:40:12.127Z,1028.36
2019-03-22T04:41:12.075Z,1028.39
2019-03-22T04:42:12.076Z,1028.43
2019-03-22T04:43:12.078Z,1028.44
2019-03-22T04:44:12.059Z,1028.43
2019-03-22T04:45:12.736Z,1028.41
2019-03-22T04:46:12.018Z,1028.43
2019-03-22T04:47:12.006Z,1028.36
2019-03-22T04:48:12.033Z,1028.38
2019-03-22T04:49:11.985Z,1028.39
2019-03-22T04:50:11.970Z,1028.42
2019-03-22T04:51:11.960Z,1028.45
2019-03-22T04:52:11.979Z,1028.51
2019-03-22T04:53:11.958Z,1028.53
2019-03-22T04:54:11.927Z,1028.54
2019-03-22T04:55:11.921Z,1028.51
2019-03-22T04:56:11.907Z,1028.50
2019-03-22T04:57:11.896Z,1028.50
2019-03-22T04:58:11.940Z,1028.45
2019-03-22T04:59:18.854Z,1028.48
2019-03-22T05:00:12.866Z,1028.50
2019-03-22T05:01:12.791Z,1028.52
2019-03-22T05:02:11.844Z,1028.54
2019-03-22T05:03:11.827Z,1028.59
2019-03-22T05:04:11.847Z,1028.60
2019-03-22T05:05:11.819Z,1028.62
2019-03-22T05:06:11.834Z,1028.63
2019-03-22T05:07:11.808Z,1028.62
2019-03-22T05:08:11.785Z,1028.60
2019-03-22T05:09:11.795Z,1028.63
2019-03-22T05:10:11.764Z,1028.62
2019-03-22T05:11:11.797Z,1028.66
2019-03-22T05:12:14.170Z,1028.65
2019-03-22T05:13:11.727Z,1028.64
2019-03-22T05:14:11.725Z,1028.64
2019-03-22T05:15:11.699Z,1028.63
2019-03-22T05:16:11.696Z,1028.66
2019-03-22T05:17:11.707Z,1028.70
2019-03-22T05:18:11.676Z,1028.75
2019-03-22T05:19:11.662Z,1028.73
2019-03-22T05:20:11.650Z,1028.82
2019-03-22T05:21:11.638Z,1028.75
2019-03-22T05:22:11.656Z,1028.77
2019-03-22T05:23:11.645Z,1028.75
2019-03-22T05:24:11.649Z,1028.75
2019-03-22T05:25:11.601Z,1028.79
2019-03-22T05:26:11.602Z,1028.78
2019-03-22T05:27:11.572Z,1028.81
2019-03-22T05:28:11.568Z,1028.82
2019-03-22T05:29:11.577Z,1028.82
2019-03-22T05:30:11.545Z,1028.75
2019-03-22T05:31:11.528Z,1028.79
2019-03-22T05:32:11.528Z,1028.71
2019-03-22T05:33:11.515Z,1028.70
2019-03-22T05:34:11.529Z,1028.74
2019-03-22T05:35:11.485Z,1028.76
2019-03-22T05:36:11.475Z,1028.78
2019-03-22T05:37:11.492Z,1028.81
2019-03-22T05:38:11.463Z,1028.80
2019-03-22T05:39:11.455Z,1028.77
2019-03-22T05:40:11.448Z,1028.80
2019-03-22T05:41:13.696Z,1028.73
2019-03-22T05:42:11.410Z,1028.72
2019-03-22T05:43:11.454Z,1028.72
2019-03-22T05:44:11.398Z,1028.73
2019-03-22T05:45:11.377Z,1028.70
2019-03-22T05:46:11.373Z,1028.69
2019-03-22T05:47:11.383Z,1028.71
2019-03-22T05:48:26.316Z,1028.79
2019-03-22T05:49:11.365Z,1028.78
2019-03-22T05:50:11.322Z,1028.79
2019-03-22T05:51:11.321Z,1028.79
2019-03-22T05:52:11.315Z,1028.83
2019-03-22T05:53:11.296Z,1028.77
2019-03-22T05:54:11.273Z,1028.77
2019-03-22T05:55:11.297Z,1028.79
2019-03-22T05:56:11.261Z,1028.80
2019-03-22T05:57:13.777Z,1028.81
2019-03-22T05:58:11.227Z,1028.86
2019-03-22T05:59:11.220Z,1028.91
2019-03-22T06:00:11.218Z,1028.91
2019-03-22T06:01:11.218Z,1028.92
2019-03-22T06:02:11.204Z,1028.97
2019-03-22T06:03:11.190Z,1028.92
2019-03-22T06:04:11.166Z,1028.93
2019-03-22T06:05:11.162Z,1028.93
2019-03-22T06:06:11.249Z,1028.91
2019-03-22T06:07:11.212Z,1028.95
2019-03-22T06:08:11.138Z,1028.91
2019-03-22T06:09:11.121Z,1028.97
2019-03-22T06:10:11.108Z,1028.97
2019-03-22T06:11:11.089Z,1028.97
2019-03-22T06:12:11.099Z,1028.96
2019-03-22T06:13:11.138Z,1028.97
2019-03-22T06:14:11.055Z,1028.85
2019-03-22T06:15:11.055Z,1028.89
2019-03-22T06:16:11.034Z,1028.86
2019-03-22T06:17:11.021Z,1028.91
2019-03-22T06:18:11.034Z,1028.92
2019-03-22T06:19:11.035Z,1028.91
2019-03-22T06:20:10.994Z,1028.98
2019-03-22T06:21:11.000Z,1028.98
2019-03-22T06:22:10.996Z,1029.00
2019-03-22T06:23:10.980Z,1029.00
2019-03-22T06:24:10.960Z,1029.01
2019-03-22T06:25:10.955Z,1029.00
2019-03-22T06:26:10.931Z,1028.99
2019-03-22T06:27:10.911Z,1028.96
2019-03-22T06:28:11.777Z,1028.98
2019-03-22T06:29:12.276Z,1028.96
2019-03-22T06:30:10.887Z,1029.00
2019-03-22T06:31:10.894Z,1029.03
2019-03-22T06:32:10.871Z,1029.05
2019-03-22T06:33:10.855Z,1029.08
2019-03-22T06:34:10.843Z,1029.04
2019-03-22T06:35:10.930Z,1029.08
2019-03-22T06:36:10.841Z,1029.03
2019-03-22T06:37:10.812Z,1029.02
2019-03-22T06:38:10.799Z,1029.01
2019-03-22T06:39:10.787Z,1029.06
2019-03-22T06:40:10.780Z,1029.08
2019-03-22T06:41:10.793Z,1029.13
2019-03-22T06:42:10.776Z,1029.14
2019-03-22T06:43:10.741Z,1029.15
2019-03-22T06:44:10.729Z,1029.15
2019-03-22T06:45:10.764Z,1029.13
2019-03-22T06:46:10.731Z,1029.17
2019-03-22T06:47:11.249Z,1029.21
2019-03-22T06:48:10.696Z,1029.22
2019-03-22T06:49:10.672Z,1029.25
2019-03-22T06:50:10.658Z,1029.31
2019-03-22T06:51:10.655Z,1029.30
2019-03-22T06:52:10.642Z,1029.29
2019-03-22T06:53:10.671Z,1029.28
2019-03-22T06:54:10.631Z,1029.25
2019-03-22T06:55:10.613Z,1029.22
2019-03-22T06:56:10.600Z,1029.19
2019-03-22T06:57:10.582Z,1029.14
2019-03-22T06:58:10.588Z,1029.18
2019-03-22T06:59:10.589Z,1029.24
2019-03-22T07:00:10.571Z,1029.21
2019-03-22T07:01:10.542Z,1029.26
2019-03-22T07:02:10.530Z,1029.28
2019-03-22T07:03:10.518Z,1029.27
2019-03-22T07:04:10.511Z,1029.31
2019-03-22T07:05:10.528Z,1029.32
2019-03-22T07:06:10.487Z,1029.29
2019-03-22T07:07:10.491Z,1029.24
2019-03-22T07:08:10.459Z,1029.25
2019-03-22T07:09:10.460Z,1029.31
2019-03-22T07:10:10.434Z,1029.29
2019-03-22T07:11:10.458Z,1029.31
2019-03-22T07:12:10.426Z,1029.32
2019-03-22T07:13:10.412Z,1029.38
2019-03-22T07:14:10.393Z,1029.29
2019-03-22T07:15:10.476Z,1029.34
2019-03-22T07:16:10.405Z,1029.33
2019-03-22T07:17:10.370Z,1029.35
2019-03-22T07:18:10.360Z,1029.37
2019-03-22T07:19:10.350Z,1029.36
2019-03-22T07:20:10.347Z,1029.40
2019-03-22T07:21:10.335Z,1029.40
2019-03-22T07:22:10.331Z,1029.43
2019-03-22T07:23:10.299Z,1029.42
2019-03-22T07:24:10.295Z,1029.44
2019-03-22T07:25:10.320Z,1029.43
2019-03-22T07:26:10.270Z,1029.42
2019-03-22T07:27:10.278Z,1029.40
2019-03-22T07:28:10.251Z,1029.41
2019-03-22T07:29:10.271Z,1029.41
2019-03-22T07:30:18.628Z,1029.39
2019-03-22T07:31:11.241Z,1029.41
2019-03-22T07:32:10.205Z,1029.42
2019-03-22T07:33:10.211Z,1029.35
2019-03-22T07:34:10.175Z,1029.31
2019-03-22T07:35:10.204Z,1029.34
2019-03-22T07:36:10.186Z,1029.29
2019-03-22T07:37:10.146Z,1029.36
2019-03-22T07:38:10.134Z,1029.31
2019-03-22T07:39:10.124Z,1029.30
2019-03-22T07:40:10.128Z,1029.33
2019-03-22T07:41:10.121Z,1029.33
2019-03-22T07:42:10.124Z,1029.35
2019-03-22T07:43:10.087Z,1029.34
2019-03-22T07:44:10.067Z,1029.33
2019-03-22T07:45:10.075Z,1029.31
2019-03-22T07:46:10.047Z,1029.33
2019-03-22T07:47:10.050Z,1029.34
2019-03-22T07:48:10.084Z,1029.31
2019-03-22T07:49:12.831Z,1029.31
2019-03-22T07:50:10.005Z,1029.33
2019-03-22T07:51:09.992Z,1029.27
2019-03-22T07:52:09.989Z,1029.24
2019-03-22T07:53:09.966Z,1029.26
2019-03-22T07:54:10.002Z,1029.27
2019-03-22T07:55:09.941Z,1029.30
2019-03-22T07:56:09.938Z,1029.30
2019-03-22T07:57:09.966Z,1029.33
2019-03-22T07:58:09.925Z,1029.37
2019-03-22T07:59:10.094Z,1029.31
2019-03-22T08:00:09.920Z,1029.32
2019-03-22T08:01:09.936Z,1029.30
2019-03-22T08:02:09.914Z,1029.33
2019-03-22T08:03:09.858Z,1029.30
2019-03-22T08:04:09.865Z,1029.27
2019-03-22T08:05:09.842Z,1029.28
2019-03-22T08:06:09.844Z,1029.25
2019-03-22T08:07:09.830Z,1029.25
2019-03-22T08:08:09.879Z,1029.25
2019-03-22T08:09:09.836Z,1029.25
2019-03-22T08:10:09.810Z,1029.29
2019-03-22T08:11:09.820Z,1029.28
2019-03-22T08:12:09.759Z,1029.27
2019-03-22T08:13:09.771Z,1029.28
2019-03-22T08:14:09.821Z,1029.29
2019-03-22T08:15:09.751Z,1029.32
2019-03-22T08:16:20.849Z,1029.34
2019-03-22T08:17:09.726Z,1029.31
2019-03-22T08:18:09.688Z,1029.30
2019-03-22T08:19:09.777Z,1029.29
2019-03-22T08:20:09.683Z,1029.25
2019-03-22T08:21:09.717Z,1029.26
2019-03-22T08:22:09.679Z,1029.26
2019-03-22T08:23:09.643Z,1029.26
2019-03-22T08:24:09.626Z,1029.26
2019-03-22T08:25:09.651Z,1029.29
2019-03-22T08:26:09.633Z,1029.27
2019-03-22T08:27:09.600Z,1029.29
2019-03-22T08:28:09.678Z,1029.30
2019-03-22T08:29:09.590Z,1029.28
2019-03-22T08:30:09.616Z,1029.27
2019-03-22T08:31:09.569Z,1029.29
2019-03-22T08:32:09.594Z,1029.28
2019-03-22T08:33:09.528Z,1029.26
2019-03-22T08:34:09.600Z,1029.24
2019-03-22T08:35:09.536Z,1029.23
2019-03-22T08:36:09.522Z,1029.28
2019-03-22T08:37:09.486Z,1029.23
2019-03-22T08:38:09.517Z,1029.26
2019-03-22T08:39:09.490Z,1029.26
2019-03-22T08:40:09.470Z,1029.31
2019-03-22T08:41:09.440Z,1029.36
2019-03-22T08:42:09.494Z,1029.39
2019-03-22T08:43:09.448Z,1029.40
2019-03-22T08:44:09.435Z,1029.40
2019-03-22T08:45:11.407Z,1029.43
2019-03-22T08:46:09.400Z,1029.43
2019-03-22T08:47:09.399Z,1029.40
2019-03-22T08:48:09.395Z,1029.39
2019-03-22T08:49:09.816Z,1029.36
2019-03-22T08:50:09.353Z,1029.39
2019-03-22T08:51:09.356Z,1029.35
2019-03-22T08:52:09.389Z,1029.39
2019-03-22T08:53:09.303Z,1029.40
2019-03-22T08:54:09.376Z,1029.44
2019-03-22T08:55:09.301Z,1029.45
2019-03-22T08:56:09.317Z,1029.42
2019-03-22T08:57:09.318Z,1029.47
2019-03-22T08:58:09.369Z,1029.43
2019-03-22T08:59:09.249Z,1029.45
2019-03-22T09:00:09.282Z,1029.44
2019-03-22T09:01:09.258Z,1029.44
2019-03-22T09:02:09.245Z,1029.46
2019-03-22T09:03:09.235Z,1029.49
2019-03-22T09:04:09.192Z,1029.44
2019-03-22T09:05:09.168Z,1029.48
2019-03-22T09:06:09.165Z,1029.42
2019-03-22T09:07:09.217Z,1029.40
2019-03-22T09:08:09.162Z,1029.34
2019-03-22T09:09:09.171Z,1029.38
2019-03-22T09:10:09.175Z,1029.39
2019-03-22T09:11:09.134Z,1029.37
2019-03-22T09:12:09.131Z,1029.39
2019-03-22T09:13:09.196Z,1029.40
2019-03-22T09:14:09.079Z,1029.39
2019-03-22T09:15:09.108Z,1029.34
2019-03-22T09:16:09.073Z,1029.31
2019-03-22T09:17:09.062Z,1029.24
2019-03-22T09:18:09.042Z,1029.22
2019-03-22T09:19:09.078Z,1029.17
2019-03-22T09:20:09.036Z,1029.19
2019-03-22T09:21:09.028Z,1029.15
2019-03-22T09:22:09.286Z,1029.20
2019-03-22T09:23:09.006Z,1029.12
2019-03-22T09:24:09.001Z,1029.24
2019-03-22T09:25:08.974Z,1029.23
2019-03-22T09:26:08.967Z,1029.24
2019-03-22T09:27:08.964Z,1029.30
2019-03-22T09:28:10.356Z,1029.28
2019-03-22T09:29:08.929Z,1029.27
2019-03-22T09:30:08.996Z,1029.29
2019-03-22T09:31:10.771Z,1029.23
2019-03-22T09:32:08.895Z,1029.25
2019-03-22T09:33:08.942Z,1029.23
2019-03-22T09:34:08.927Z,1029.24
2019-03-22T09:35:08.851Z,1029.27
2019-03-22T09:36:08.830Z,1029.27
2019-03-22T09:37:09.165Z,1029.24
2019-03-22T09:38:13.205Z,1029.30
2019-03-22T09:39:08.800Z,1029.25
2019-03-22T09:40:08.853Z,1029.25
2019-03-22T09:41:08.826Z,1029.21
2019-03-22T09:42:08.801Z,1029.22
2019-03-22T09:43:08.778Z,1029.20
2019-03-22T09:44:08.765Z,1029.19
2019-03-22T09:45:08.831Z,1029.15
2019-03-22T09:46:08.859Z,1029.20
2019-03-22T09:47:08.863Z,1029.17
2019-03-22T09:48:08.720Z,1029.11
2019-03-22T09:49:08.705Z,1029.17
2019-03-22T09:50:08.711Z,1029.12
2019-03-22T09:51:08.712Z,1029.15
2019-03-22T09:52:08.671Z,1029.14
2019-03-22T09:53:08.658Z,1029.14
2019-03-22T09:54:08.640Z,1029.12
2019-03-22T09:55:13.993Z,1029.15
2019-03-22T09:56:09.685Z,1029.13
2019-03-22T09:57:08.622Z,1029.18
2019-03-22T09:58:08.583Z,1029.15
2019-03-22T09:59:08.585Z,1029.17
2019-03-22T10:00:08.581Z,1029.15
2019-03-22T10:01:08.619Z,1029.14
2019-03-22T10:02:08.551Z,1029.18
2019-03-22T10:03:08.620Z,1029.19
2019-03-22T10:04:08.536Z,1029.18
2019-03-22T10:05:08.520Z,1029.20
2019-03-22T10:06:08.547Z,1029.19
2019-03-22T10:07:08.499Z,1029.18
2019-03-22T10:08:08.510Z,1029.17
2019-03-22T10:09:08.542Z,1029.19
2019-03-22T10:10:08.470Z,1029.17
2019-03-22T10:11:08.466Z,1029.17
2019-03-22T10:12:08.482Z,1029.16
2019-03-22T10:13:08.558Z,1029.17
2019-03-22T10:14:08.433Z,1029.21
2019-03-22T10:15:08.392Z,1029.19
2019-03-22T10:16:08.393Z,1029.19
2019-03-22T10:17:08.427Z,1029.18
2019-03-22T10:18:08.492Z,1029.23
2019-03-22T10:19:08.375Z,1029.18
2019-03-22T10:20:08.392Z,1029.19
2019-03-22T10:21:21.513Z,1029.23
2019-03-22T10:22:09.356Z,1029.23
2019-03-22T10:23:08.339Z,1029.20
2019-03-22T10:24:08.368Z,1029.19
2019-03-22T10:25:08.361Z,1029.19
2019-03-22T10:26:08.310Z,1029.21
2019-03-22T10:27:08.270Z,1029.19
2019-03-22T10:28:08.270Z,1029.15
2019-03-22T10:29:08.261Z,1029.16
2019-03-22T10:30:08.333Z,1029.11
2019-03-22T10:31:08.336Z,1029.13
2019-03-22T10:32:08.241Z,1029.16
2019-03-22T10:34:04.531Z,1029.13
2019-03-22T10:35:04.544Z,1029.15
2019-03-22T10:36:04.482Z,1029.11
2019-03-22T10:37:04.502Z,1029.12
2019-03-22T10:38:06.337Z,1029.11
2019-03-22T10:39:05.440Z,1029.06
2019-03-22T10:40:04.502Z,1029.04
2019-03-22T10:41:04.496Z,1029.07
2019-03-22T10:42:04.480Z,1029.08
2019-03-22T10:43:04.443Z,1029.08
2019-03-22T10:44:04.542Z,1029.07
2019-03-22T10:45:04.387Z,1029.05
2019-03-22T10:46:04.411Z,1029.07
2019-03-22T10:47:04.401Z,1029.07
2019-03-22T10:48:04.414Z,1029.05
2019-03-22T10:49:04.383Z,1029.06
2019-03-22T10:50:04.444Z,1029.07
2019-03-22T10:51:04.340Z,1029.03
2019-03-22T10:52:04.689Z,1029.03
2019-03-22T10:53:04.405Z,1029.04
2019-03-22T10:54:04.435Z,1029.03
2019-03-22T10:55:23.508Z,1028.99
2019-03-22T10:56:05.257Z,1029.00
2019-03-22T10:57:04.256Z,1029.00
2019-03-22T10:58:04.287Z,1029.07
2019-03-22T10:59:04.265Z,1029.05
2019-03-22T11:00:04.232Z,1029.05
2019-03-22T11:01:04.214Z,1029.01
2019-03-22T11:02:07.456Z,1028.99
2019-03-22T11:03:04.192Z,1029.01
2019-03-22T11:05:04.464Z,1028.98
2019-03-22T11:06:04.175Z,1028.97
2019-03-22T11:07:04.183Z,1028.94
2019-03-22T11:08:04.133Z,1028.93
2019-03-22T11:09:04.127Z,1028.90
2019-03-22T11:10:04.122Z,1028.84
2019-03-22T11:11:04.135Z,1028.83
2019-03-22T11:12:11.866Z,1028.84
2019-03-22T11:13:05.145Z,1028.77
2019-03-22T11:14:04.103Z,1028.82
2019-03-22T11:15:04.065Z,1028.79
2019-03-22T11:16:04.082Z,1028.81
2019-03-22T11:17:04.080Z,1028.82
2019-03-22T11:18:04.031Z,1028.81
2019-03-22T11:19:04.025Z,1028.78
2019-03-22T11:20:04.003Z,1028.75
2019-03-22T11:21:05.491Z,1028.74
2019-03-22T11:22:04.002Z,1028.74
2019-03-22T11:23:04.017Z,1028.73
2019-03-22T11:24:03.964Z,1028.73
2019-03-22T11:25:04.914Z,1028.74
2019-03-22T11:26:04.604Z,1028.73
2019-03-22T11:27:03.951Z,1028.70
2019-03-22T11:28:03.911Z,1028.68
2019-03-22T11:29:03.952Z,1028.63
2019-03-22T11:30:03.911Z,1028.65
2019-03-22T11:31:04.988Z,1028.60
2019-03-22T11:32:12.310Z,1028.58
2019-03-22T11:33:04.876Z,1028.53
2019-03-22T11:34:03.902Z,1028.53
2019-03-22T11:35:03.887Z,1028.53
2019-03-22T11:36:03.842Z,1028.51
2019-03-22T11:37:03.820Z,1028.45
2019-03-22T11:38:03.816Z,1028.45
2019-03-22T11:39:03.801Z,1028.42
2019-03-22T11:40:03.828Z,1028.42
2019-03-22T11:41:03.792Z,1028.42
2019-03-22T11:42:03.765Z,1028.37
2019-03-22T11:43:08.503Z,1028.38
2019-03-22T11:44:04.750Z,1028.36
2019-03-22T11:45:03.740Z,1028.37
2019-03-22T11:46:03.739Z,1028.37
2019-03-22T11:47:03.707Z,1028.43
2019-03-22T11:48:03.698Z,1028.38
2019-03-22T11:49:03.707Z,1028.35
2019-03-22T11:50:03.710Z,1028.38
2019-03-22T11:51:03.706Z,1028.35
2019-03-22T11:52:03.665Z,1028.35
2019-03-22T11:53:03.646Z,1028.31
2019-03-22T11:54:03.645Z,1028.34
2019-03-22T11:55:03.627Z,1028.39
2019-03-22T11:56:03.616Z,1028.33
2019-03-22T11:57:03.906Z,1028.27
2019-03-22T11:58:03.603Z,1028.34
2019-03-22T11:59:03.577Z,1028.26
2019-03-22T12:00:03.568Z,1028.25
2019-03-22T12:01:03.559Z,1028.23
2019-03-22T12:02:03.599Z,1028.28
2019-03-22T12:03:03.542Z,1028.23
2019-03-22T12:04:03.539Z,1028.24
2019-03-22T12:05:03.515Z,1028.23
2019-03-22T12:06:03.579Z,1028.21
2019-03-22T12:07:03.502Z,1028.24